Salipta, Alabama
Current Conditions -  °F | °C
As of 9:53 AM on Friday 24 Oct 2014 (Local Time) from KGZH Reporting Station
Clear Clear  
Wind Chill: 65°   Ceiling: Unl
Heat Index: 65°   Visibility: 10mi
Dew Point: 49°   Wind: 0mph
Humidity: 56%   Direction: NA
Pressure: 30.1"   Gusts: NA
Location:  31.4434°N, 87.8529°W
Report Text: KGZH 241453Z AUTO 00000KT 10SM CLR 18/09 A3010 RMK AO2 SLP189 T01830094 50005
Loading
Personal Weather Stations






























Interactive Weather Map
Tropical Storm Tracking
New forecast layout! Learn more

10-Day Weather Forecast

Advertisements
Track Severe Weather on mobile